Time;durP1;ratioP1;P1;durP2;ratioP2;P2;SDS_P1;SDS_P2;PMS_P1;PMS_P2;Temp;Humidity;BMP_temperature;BMP_pressure;BME280_temperature;BME280_humidity;BME280_pressure;Samples;Min_cycle;Max_cycle;Signal;HPM_P1;HPM_P2
2021/10/26 00:00:27;;;;;;;;;;;14.90;99.90;;;;;;4974543;28;837;-54
2021/10/26 00:02:53;;;;;;;;;;;14.90;99.90;;;;;;4978270;28;806;-54
2021/10/26 00:05:19;;;;;;;;;;;14.90;99.90;;;;;;4977944;28;804;-53
2021/10/26 00:07:45;;;;;;;;;;;14.90;99.90;;;;;;4977889;28;828;-54
2021/10/26 00:10:12;;;;;;;;;;;14.90;99.90;;;;;;4977724;28;1327;-54
2021/10/26 00:12:38;;;;;;;;;;;14.90;99.90;;;;;;4977841;28;826;-54
2021/10/26 00:15:04;;;;;;;;;;;14.90;99.90;;;;;;4977767;28;924;-54
2021/10/26 00:17:30;;;;;;;;;;;14.90;99.90;;;;;;4976444;28;1959;-54
2021/10/26 00:19:56;;;;;;;;;;;14.90;99.90;;;;;;4977796;28;771;-54
2021/10/26 00:22:22;;;;;;;;;;;14.80;99.90;;;;;;4977774;28;873;-53
2021/10/26 00:24:48;;;;;;;;;;;14.80;99.90;;;;;;4977529;28;1029;-54
2021/10/26 00:27:14;;;;;;;;;;;14.80;99.90;;;;;;4978152;28;820;-54
2021/10/26 00:29:40;;;;;;;;;;;14.80;99.90;;;;;;4977532;28;767;-53
2021/10/26 00:32:06;;;;;;;;;;;14.80;99.90;;;;;;4977528;28;877;-54
2021/10/26 00:34:32;;;;;;;;;;;14.80;99.90;;;;;;4977768;28;902;-53
2021/10/26 00:36:58;;;;;;;;;;;14.80;99.90;;;;;;4977360;28;1971;-53
2021/10/26 00:39:24;;;;;;;;;;;14.80;99.90;;;;;;4977561;28;1132;-53
2021/10/26 00:41:50;;;;;;;;;;;14.80;99.90;;;;;;4974994;28;1069;-53
2021/10/26 00:44:16;;;;;;;;;;;14.80;99.90;;;;;;4977029;28;1052;-53
2021/10/26 00:46:42;;;;;;;;;;;14.80;99.90;;;;;;4977363;28;955;-53
2021/10/26 00:49:11;;;;;;;;;;;14.80;99.90;;;;;;4976160;28;995;-52
2021/10/26 00:51:39;;;;;;;;;;;14.80;99.90;;;;;;4977135;28;861;-53
2021/10/26 00:54:05;;;;;;;;;;;14.80;99.90;;;;;;4977266;28;925;-52
2021/10/26 00:56:32;;;;;;;;;;;14.80;99.90;;;;;;4977214;28;1119;-51
2021/10/26 00:58:58;;;;;;;;;;;14.80;99.90;;;;;;4977132;28;1973;-52
2021/10/26 01:01:24;;;;;;;;;;;14.80;99.90;;;;;;4977189;28;986;-51
2021/10/26 01:03:51;;;;;;;;;;;14.80;99.90;;;;;;4977030;28;925;-52
2021/10/26 01:06:17;;;;;;;;;;;14.80;99.90;;;;;;4976446;28;1016;-51
2021/10/26 01:08:45;;;;;;;;;;;14.80;99.90;;;;;;4976023;28;1097;-52
2021/10/26 01:11:11;;;;;;;;;;;14.70;99.90;;;;;;4976873;28;802;-51
2021/10/26 01:13:37;;;;;;;;;;;14.70;99.90;;;;;;4974512;28;973;-53
2021/10/26 01:16:04;;;;;;;;;;;14.80;99.90;;;;;;4976000;28;957;-52
2021/10/26 01:18:30;;;;;;;;;;;14.70;99.90;;;;;;4977091;28;2217;-51
2021/10/26 01:20:56;;;;;;;;;;;14.70;99.90;;;;;;4977226;28;994;-52
2021/10/26 01:23:23;;;;;;;;;;;14.70;99.90;;;;;;4976969;28;769;-51
2021/10/26 01:25:49;;;;;;;;;;;14.70;99.90;;;;;;4977223;28;885;-51
2021/10/26 01:28:16;;;;;;;;;;;14.70;99.90;;;;;;4976856;28;861;-51
2021/10/26 01:30:42;;;;;;;;;;;14.70;99.90;;;;;;4976754;28;936;-51
2021/10/26 01:33:08;;;;;;;;;;;14.70;99.90;;;;;;4977053;28;838;-51
2021/10/26 01:35:35;;;;;;;;;;;14.70;99.90;;;;;;4976814;28;954;-51
2021/10/26 01:38:01;;;;;;;;;;;14.70;99.90;;;;;;4976706;28;1910;-51
2021/10/26 01:40:27;;;;;;;;;;;14.70;99.90;;;;;;4977069;28;1499;-52
2021/10/26 01:42:53;;;;;;;;;;;14.60;99.90;;;;;;4976569;28;1203;-51
2021/10/26 01:45:19;;;;;;;;;;;14.60;99.90;;;;;;4976780;28;914;-51
2021/10/26 01:47:46;;;;;;;;;;;14.60;99.90;;;;;;4976687;28;825;-53
2021/10/26 01:50:13;;;;;;;;;;;14.60;99.90;;;;;;4976973;28;822;-51
2021/10/26 01:52:39;;;;;;;;;;;14.60;99.90;;;;;;4974171;28;1053;-52
2021/10/26 01:55:06;;;;;;;;;;;14.60;99.90;;;;;;4976621;28;767;-51
2021/10/26 01:57:32;;;;;;;;;;;14.60;99.90;;;;;;4976876;28;1977;-51
2021/10/26 01:59:59;;;;;;;;;;;14.60;99.90;;;;;;4976615;28;825;-54
2021/10/26 02:02:25;;;;;;;;;;;14.60;99.90;;;;;;4976631;28;1210;-53
2021/10/26 02:04:52;;;;;;;;;;;14.60;99.90;;;;;;4976720;28;1068;-53
2021/10/26 02:07:18;;;;;;;;;;;14.60;99.90;;;;;;4976501;28;962;-53
2021/10/26 02:09:44;;;;;;;;;;;14.60;99.90;;;;;;4976811;28;779;-53
2021/10/26 02:12:10;;;;;;;;;;;14.60;99.90;;;;;;4976411;28;778;-54
2021/10/26 02:14:37;;;;;;;;;;;14.60;99.90;;;;;;4976444;28;814;-54
2021/10/26 02:17:04;;;;;;;;;;;14.60;99.90;;;;;;4976256;28;1911;-54
2021/10/26 02:19:30;;;;;;;;;;;14.60;99.90;;;;;;4980174;28;937;-53
2021/10/26 02:21:56;;;;;;;;;;;14.60;99.90;;;;;;4980338;28;926;-53
2021/10/26 02:24:22;;;;;;;;;;;14.50;99.90;;;;;;4979983;28;882;-54
2021/10/26 02:26:49;;;;;;;;;;;14.60;99.90;;;;;;4978228;28;1254;-53
2021/10/26 02:29:15;;;;;;;;;;;14.50;99.90;;;;;;4979872;28;1088;-54
2021/10/26 02:31:41;;;;;;;;;;;14.50;99.90;;;;;;4979610;28;881;-53
2021/10/26 02:34:07;;;;;;;;;;;14.50;99.90;;;;;;4979946;28;889;-54
2021/10/26 02:36:34;;;;;;;;;;;14.50;99.90;;;;;;4978730;28;798;-53
2021/10/26 02:39:00;;;;;;;;;;;14.50;99.90;;;;;;4979743;28;1969;-53
2021/10/26 02:41:26;;;;;;;;;;;14.50;99.90;;;;;;4979621;28;966;-53
2021/10/26 02:43:52;;;;;;;;;;;14.50;99.90;;;;;;4979525;28;1020;-53
2021/10/26 02:46:18;;;;;;;;;;;14.50;99.90;;;;;;4979288;28;916;-53
2021/10/26 02:48:47;;;;;;;;;;;14.50;99.90;;;;;;4979997;28;901;-54
2021/10/26 02:51:14;;;;;;;;;;;14.50;99.90;;;;;;4979735;28;887;-53
2021/10/26 02:53:40;;;;;;;;;;;14.50;99.90;;;;;;4979401;28;1174;-53
2021/10/26 02:56:06;;;;;;;;;;;14.50;99.90;;;;;;4979263;28;861;-53
2021/10/26 02:58:32;;;;;;;;;;;14.50;99.90;;;;;;4978488;28;1902;-54
2021/10/26 03:00:57;;;;;;;;;;;14.50;99.90;;;;;;4979213;28;1007;-53
2021/10/26 03:03:23;;;;;;;;;;;14.50;99.90;;;;;;4973676;28;1374;-53
2021/10/26 03:05:49;;;;;;;;;;;14.50;99.90;;;;;;4979034;28;852;-53
2021/10/26 03:08:16;;;;;;;;;;;14.50;99.90;;;;;;4978895;28;941;-54
2021/10/26 03:10:42;;;;;;;;;;;14.40;99.90;;;;;;4978892;28;847;-54
2021/10/26 03:13:08;;;;;;;;;;;14.40;99.90;;;;;;4978836;28;897;-53
2021/10/26 03:15:33;;;;;;;;;;;14.40;99.90;;;;;;4979048;28;809;-54
2021/10/26 03:18:00;;;;;;;;;;;14.40;99.90;;;;;;4978843;28;1968;-53
2021/10/26 03:20:26;;;;;;;;;;;14.50;99.90;;;;;;4979044;28;904;-54
2021/10/26 03:22:52;;;;;;;;;;;14.40;99.90;;;;;;4978775;28;876;-53
2021/10/26 03:25:18;;;;;;;;;;;14.40;99.90;;;;;;4979101;28;858;-54
2021/10/26 03:27:44;;;;;;;;;;;14.40;99.90;;;;;;4978888;28;914;-54
2021/10/26 03:30:11;;;;;;;;;;;14.40;99.90;;;;;;4976847;28;1385;-54
2021/10/26 03:32:37;;;;;;;;;;;14.40;99.90;;;;;;4977367;28;1331;-51
2021/10/26 03:35:03;;;;;;;;;;;14.40;99.90;;;;;;4978560;28;884;-53
2021/10/26 03:37:29;;;;;;;;;;;14.40;99.90;;;;;;4978914;28;1914;-51
2021/10/26 03:39:56;;;;;;;;;;;14.40;99.90;;;;;;4978382;28;1076;-53
2021/10/26 03:42:22;;;;;;;;;;;14.40;99.90;;;;;;4978193;28;885;-51
2021/10/26 03:44:48;;;;;;;;;;;14.40;99.90;;;;;;4978257;28;1464;-51
2021/10/26 03:47:14;;;;;;;;;;;14.40;99.90;;;;;;4976130;28;822;-51
2021/10/26 03:49:41;;;;;;;;;;;14.40;99.90;;;;;;4977388;28;954;-51
2021/10/26 03:52:07;;;;;;;;;;;14.40;99.90;;;;;;4978518;28;779;-51
2021/10/26 03:54:33;;;;;;;;;;;14.40;99.90;;;;;;4978167;28;815;-51
2021/10/26 03:56:59;;;;;;;;;;;14.40;99.90;;;;;;4977992;28;862;-51
2021/10/26 03:59:32;;;;;;;;;;;14.40;99.90;;;;;;4978497;28;1899;-51
2021/10/26 04:02:02;;;;;;;;;;;14.40;99.90;;;;;;4976103;28;1141;-51
2021/10/26 04:04:28;;;;;;;;;;;14.40;99.90;;;;;;4978533;28;1089;-51
2021/10/26 04:06:54;;;;;;;;;;;14.40;99.90;;;;;;4976068;28;1080;-51
2021/10/26 04:09:31;;;;;;;;;;;14.40;99.90;;;;;;4978041;28;893;-51
2021/10/26 04:14:42;;;;;;;;;;;14.40;99.90;;;;;;4977861;28;798;-51
2021/10/26 04:17:08;;;;;;;;;;;14.40;99.90;;;;;;4977660;28;920;-51
2021/10/26 04:19:34;;;;;;;;;;;14.30;99.90;;;;;;4975615;28;1973;-53
2021/10/26 04:22:00;;;;;;;;;;;14.30;99.90;;;;;;4977800;28;817;-54
2021/10/26 04:24:26;;;;;;;;;;;14.30;99.90;;;;;;4977727;28;941;-53
2021/10/26 04:26:52;;;;;;;;;;;14.30;99.90;;;;;;4973738;28;858;-51
2021/10/26 04:29:18;;;;;;;;;;;14.30;99.90;;;;;;4977559;28;931;-51
2021/10/26 04:31:44;;;;;;;;;;;14.30;99.90;;;;;;4977624;28;901;-51
2021/10/26 04:34:09;;;;;;;;;;;14.30;99.90;;;;;;4976635;28;817;-53
2021/10/26 04:36:36;;;;;;;;;;;14.30;99.90;;;;;;4977696;28;878;-53
2021/10/26 04:39:03;;;;;;;;;;;14.30;99.90;;;;;;4960294;28;1963;-53
2021/10/26 04:41:29;;;;;;;;;;;14.30;99.90;;;;;;4976108;28;903;-53
2021/10/26 04:43:55;;;;;;;;;;;14.30;99.90;;;;;;4977235;28;1203;-54
2021/10/26 04:46:21;;;;;;;;;;;14.30;99.90;;;;;;4977317;28;898;-53
2021/10/26 04:48:47;;;;;;;;;;;14.30;99.90;;;;;;4977359;28;810;-55
2021/10/26 04:51:12;;;;;;;;;;;14.30;99.90;;;;;;4977255;28;870;-53
2021/10/26 04:53:39;;;;;;;;;;;14.30;99.90;;;;;;4976312;28;1045;-53
2021/10/26 04:56:05;;;;;;;;;;;14.30;99.90;;;;;;4977035;28;937;-51
2021/10/26 04:58:31;;;;;;;;;;;14.30;99.90;;;;;;4977165;28;1965;-51
2021/10/26 05:00:57;;;;;;;;;;;14.40;99.90;;;;;;4976992;28;968;-51
2021/10/26 05:03:23;;;;;;;;;;;14.40;99.90;;;;;;4975062;28;870;-51
2021/10/26 05:05:49;;;;;;;;;;;14.40;99.90;;;;;;4977027;28;878;-53
2021/10/26 05:08:15;;;;;;;;;;;14.50;99.90;;;;;;4976140;28;1159;-53
2021/10/26 05:10:41;;;;;;;;;;;14.50;99.90;;;;;;4976902;28;839;-51
2021/10/26 05:13:07;;;;;;;;;;;14.60;99.90;;;;;;4977017;28;813;-53
2021/10/26 05:15:33;;;;;;;;;;;14.60;99.90;;;;;;4976979;28;1223;-54
2021/10/26 05:18:00;;;;;;;;;;;14.60;99.90;;;;;;4976795;28;1906;-56
2021/10/26 05:20:27;;;;;;;;;;;14.70;99.90;;;;;;4977222;28;905;-55
2021/10/26 05:22:55;;;;;;;;;;;14.70;99.90;;;;;;4976846;28;861;-53
2021/10/26 05:25:21;;;;;;;;;;;14.80;99.90;;;;;;4975996;28;905;-53
2021/10/26 05:27:48;;;;;;;;;;;14.80;99.90;;;;;;4976969;28;827;-53
2021/10/26 05:30:14;;;;;;;;;;;14.80;99.90;;;;;;4977062;28;903;-51
2021/10/26 05:32:40;;;;;;;;;;;14.80;99.90;;;;;;4976866;28;886;-55
2021/10/26 05:35:06;;;;;;;;;;;14.80;99.90;;;;;;4976855;28;858;-56
2021/10/26 05:37:32;;;;;;;;;;;14.90;99.90;;;;;;4976707;28;1903;-53
2021/10/26 05:39:58;;;;;;;;;;;14.90;99.90;;;;;;4976682;28;923;-53
2021/10/26 05:42:24;;;;;;;;;;;14.90;99.90;;;;;;4976757;28;843;-55
2021/10/26 05:44:50;;;;;;;;;;;14.90;99.90;;;;;;4976517;28;1004;-55
2021/10/26 05:47:16;;;;;;;;;;;14.80;99.90;;;;;;4976714;28;786;-56
2021/10/26 05:49:42;;;;;;;;;;;14.80;99.90;;;;;;4976986;28;933;-53
2021/10/26 05:52:08;;;;;;;;;;;14.80;99.90;;;;;;4976911;28;865;-53
2021/10/26 05:54:34;;;;;;;;;;;14.80;99.90;;;;;;4980011;28;1118;-56
2021/10/26 05:57:00;;;;;;;;;;;14.80;99.90;;;;;;4980428;28;874;-51
2021/10/26 05:59:26;;;;;;;;;;;14.80;99.90;;;;;;4980580;28;1971;-51
2021/10/26 06:01:52;;;;;;;;;;;14.80;99.90;;;;;;4980182;28;819;-51
2021/10/26 06:04:18;;;;;;;;;;;14.80;99.90;;;;;;4980219;28;911;-53
2021/10/26 06:06:45;;;;;;;;;;;14.80;99.90;;;;;;4980252;28;783;-53
2021/10/26 06:09:12;;;;;;;;;;;14.80;99.90;;;;;;4980150;28;759;-53
2021/10/26 06:11:38;;;;;;;;;;;14.70;99.90;;;;;;4979833;28;878;-51
2021/10/26 06:14:05;;;;;;;;;;;14.70;99.90;;;;;;4980325;28;899;-53
2021/10/26 06:16:32;;;;;;;;;;;14.70;99.90;;;;;;4976088;28;866;-54
2021/10/26 06:18:58;;;;;;;;;;;14.70;99.90;;;;;;4975491;28;1973;-53
2021/10/26 06:21:24;;;;;;;;;;;14.70;99.90;;;;;;4995179;28;1239;-53
2021/10/26 06:23:50;;;;;;;;;;;14.70;99.90;;;;;;4978333;28;1231;-53
2021/10/26 06:26:16;;;;;;;;;;;14.70;99.90;;;;;;4979933;28;966;-53
2021/10/26 06:28:42;;;;;;;;;;;14.70;99.90;;;;;;4979998;28;754;-51
2021/10/26 06:31:08;;;;;;;;;;;14.70;99.90;;;;;;4980012;28;1011;-51
2021/10/26 06:33:34;;;;;;;;;;;14.60;99.90;;;;;;4979884;28;1104;-51
2021/10/26 06:36:00;;;;;;;;;;;14.60;99.90;;;;;;4979675;28;754;-51
2021/10/26 06:38:26;;;;;;;;;;;14.60;99.90;;;;;;4979444;28;1980;-53
2021/10/26 06:40:52;;;;;;;;;;;14.60;99.90;;;;;;4979554;28;893;-53
2021/10/26 06:43:19;;;;;;;;;;;14.60;99.90;;;;;;4979472;28;1176;-53
2021/10/26 06:45:45;;;;;;;;;;;14.60;99.90;;;;;;4979835;28;992;-53
2021/10/26 06:48:11;;;;;;;;;;;14.60;99.90;;;;;;4977627;28;937;-53
2021/10/26 06:50:37;;;;;;;;;;;14.60;99.90;;;;;;4979418;28;830;-53
2021/10/26 06:53:03;;;;;;;;;;;14.60;99.90;;;;;;4979612;28;875;-53
2021/10/26 06:55:29;;;;;;;;;;;14.60;99.90;;;;;;4979566;28;843;-53
2021/10/26 06:57:54;;;;;;;;;;;14.60;99.90;;;;;;4978881;28;1914;-55
2021/10/26 07:00:23;;;;;;;;;;;14.60;99.90;;;;;;4979744;28;805;-55
2021/10/26 07:02:50;;;;;;;;;;;14.60;99.90;;;;;;4977949;28;1569;-55
2021/10/26 07:05:17;;;;;;;;;;;14.60;99.90;;;;;;4979413;28;882;-55
2021/10/26 07:07:43;;;;;;;;;;;14.60;99.90;;;;;;4979287;28;917;-55
2021/10/26 07:10:09;;;;;;;;;;;14.60;99.90;;;;;;4979022;28;908;-55
2021/10/26 07:12:35;;;;;;;;;;;14.60;99.90;;;;;;4978885;28;754;-53
2021/10/26 07:15:05;;;;;;;;;;;14.60;99.90;;;;;;4979093;28;862;-55
2021/10/26 07:17:32;;;;;;;;;;;14.60;99.90;;;;;;4979358;28;813;-55
2021/10/26 07:19:58;;;;;;;;;;;14.60;99.90;;;;;;4978216;28;1955;-55
2021/10/26 07:22:23;;;;;;;;;;;14.60;99.90;;;;;;4978838;28;861;-55
2021/10/26 07:24:56;;;;;;;;;;;14.60;99.90;;;;;;4978794;28;889;-55
2021/10/26 07:27:23;;;;;;;;;;;14.60;99.90;;;;;;4978850;28;903;-53
2021/10/26 07:29:49;;;;;;;;;;;14.60;99.90;;;;;;4978747;28;838;-55
2021/10/26 07:32:15;;;;;;;;;;;14.60;99.90;;;;;;4977590;28;1003;-55
2021/10/26 07:34:41;;;;;;;;;;;14.60;99.90;;;;;;4978933;28;831;-55
2021/10/26 07:37:07;;;;;;;;;;;14.60;99.90;;;;;;4978807;28;881;-55
2021/10/26 07:39:35;;;;;;;;;;;14.60;99.90;;;;;;4978614;28;1895;-55
2021/10/26 07:42:02;;;;;;;;;;;14.70;99.90;;;;;;4978741;28;917;-55
2021/10/26 07:44:29;;;;;;;;;;;14.60;99.90;;;;;;4977483;28;1289;-53
2021/10/26 07:47:00;;;;;;;;;;;14.70;99.90;;;;;;4977277;28;787;-55
2021/10/26 07:49:27;;;;;;;;;;;14.70;99.90;;;;;;4977556;28;784;-53
2021/10/26 07:51:53;;;;;;;;;;;14.70;99.90;;;;;;4977421;28;826;-53
2021/10/26 07:54:20;;;;;;;;;;;14.70;99.90;;;;;;4977619;28;958;-55
2021/10/26 07:56:46;;;;;;;;;;;14.70;99.90;;;;;;4976325;28;828;-55
2021/10/26 07:59:12;;;;;;;;;;;14.70;99.90;;;;;;4977688;28;1902;-55
2021/10/26 08:01:38;;;;;;;;;;;14.70;99.90;;;;;;4977404;28;894;-53
2021/10/26 08:04:05;;;;;;;;;;;14.70;99.90;;;;;;4977377;28;859;-55
2021/10/26 08:06:31;;;;;;;;;;;14.70;99.90;;;;;;4977391;28;851;-55
2021/10/26 08:08:56;;;;;;;;;;;14.80;99.90;;;;;;4977400;28;870;-55
2021/10/26 08:11:24;;;;;;;;;;;14.80;99.90;;;;;;4976945;28;826;-56
2021/10/26 08:13:50;;;;;;;;;;;14.80;99.90;;;;;;4977325;28;949;-55
2021/10/26 08:16:16;;;;;;;;;;;14.80;99.90;;;;;;4976733;28;834;-53
2021/10/26 08:18:42;;;;;;;;;;;14.80;99.90;;;;;;4976888;28;1952;-55
2021/10/26 08:21:08;;;;;;;;;;;14.80;99.90;;;;;;4977003;28;846;-55
2021/10/26 08:23:35;;;;;;;;;;;14.80;99.90;;;;;;4977172;28;792;-55
2021/10/26 08:26:01;;;;;;;;;;;14.70;99.90;;;;;;4976984;28;906;-55
2021/10/26 08:28:27;;;;;;;;;;;14.70;99.90;;;;;;4976726;28;871;-55
2021/10/26 08:31:03;;;;;;;;;;;14.70;99.90;;;;;;4976484;28;1145;-55
2021/10/26 08:35:58;;;;;;;;;;;14.70;99.90;;;;;;4976742;28;833;-55
2021/10/26 08:38:24;;;;;;;;;;;14.80;99.90;;;;;;4976575;28;1958;-55
2021/10/26 08:40:50;;;;;;;;;;;14.70;99.90;;;;;;4976929;28;817;-56
2021/10/26 08:43:17;;;;;;;;;;;14.70;99.90;;;;;;4938097;28;1115931;-55
2021/10/26 08:45:48;;;;;;;;;;;14.70;99.90;;;;;;4977356;28;794;-53
2021/10/26 08:48:21;;;;;;;;;;;14.70;99.90;;;;;;4976229;28;819;-55
2021/10/26 08:50:51;;;;;;;;;;;14.70;99.90;;;;;;4976467;28;834;-53
2021/10/26 08:53:18;;;;;;;;;;;14.70;99.90;;;;;;4977430;28;976;-53
2021/10/26 08:55:55;;;;;;;;;;;14.80;99.90;;;;;;4977434;28;910;-54
2021/10/26 08:58:23;;;;;;;;;;;14.80;99.90;;;;;;4975834;28;1910;-53
2021/10/26 09:00:49;;;;;;;;;;;14.80;99.90;;;;;;4977193;28;996;-54
2021/10/26 09:03:22;;;;;;;;;;;14.80;99.90;;;;;;4977267;28;954;-53
2021/10/26 09:05:49;;;;;;;;;;;14.80;99.90;;;;;;4977248;28;905;-54
2021/10/26 09:08:18;;;;;;;;;;;14.80;99.90;;;;;;4977494;28;988;-54
2021/10/26 09:10:45;;;;;;;;;;;14.80;99.90;;;;;;4976919;28;1563;-54
2021/10/26 09:18:50;;;;;;;;;;;14.90;99.90;;;;;;4976736;28;1907;-51
2021/10/26 09:21:31;;;;;;;;;;;14.90;99.90;;;;;;4977335;28;871;-51
2021/10/26 09:23:58;;;;;;;;;;;14.90;99.90;;;;;;4977114;28;1218;-51
2021/10/26 09:26:44;;;;;;;;;;;14.90;99.90;;;;;;4977005;28;908;-51
2021/10/26 09:29:11;;;;;;;;;;;14.90;99.90;;;;;;4979746;28;1303;-51
2021/10/26 09:31:39;;;;;;;;;;;15.00;99.90;;;;;;4980967;28;1073;-51
2021/10/26 09:34:06;;;;;;;;;;;15.00;99.90;;;;;;4981232;28;965;-52
2021/10/26 09:36:34;;;;;;;;;;;15.10;99.90;;;;;;4981161;28;1177;-52
2021/10/26 09:39:02;;;;;;;;;;;15.10;99.90;;;;;;4981071;28;1911;-51
2021/10/26 09:41:28;;;;;;;;;;;15.10;99.90;;;;;;4979565;28;1042;-52
2021/10/26 09:44:13;;;;;;;;;;;15.10;99.90;;;;;;4980618;28;1018;-52
2021/10/26 09:46:51;;;;;;;;;;;15.20;99.90;;;;;;4980345;28;898;-52
2021/10/26 09:49:21;;;;;;;;;;;15.20;99.90;;;;;;4980491;28;1010;-52
2021/10/26 09:51:48;;;;;;;;;;;15.20;99.90;;;;;;4975753;28;861;-52
2021/10/26 09:54:20;;;;;;;;;;;15.20;99.90;;;;;;4980888;28;857;-52
2021/10/26 09:57:02;;;;;;;;;;;15.30;99.90;;;;;;4980506;28;809;-52
2021/10/26 09:59:29;;;;;;;;;;;15.30;99.90;;;;;;4980720;28;1911;-52
2021/10/26 10:01:55;;;;;;;;;;;15.30;99.90;;;;;;4980428;28;1027;-52
2021/10/26 10:04:25;;;;;;;;;;;15.30;99.90;;;;;;4980528;28;901;-52
2021/10/26 10:06:51;;;;;;;;;;;15.30;99.90;;;;;;4980234;28;872;-52
2021/10/26 10:09:23;;;;;;;;;;;15.30;99.90;;;;;;4980406;28;807;-52
2021/10/26 10:11:58;;;;;;;;;;;15.30;99.90;;;;;;4980153;28;882;-52
2021/10/26 10:14:24;;;;;;;;;;;15.30;99.90;;;;;;4980353;28;909;-52
2021/10/26 10:16:52;;;;;;;;;;;15.30;99.90;;;;;;4979910;28;854;-52
2021/10/26 10:19:18;;;;;;;;;;;15.30;99.90;;;;;;4979915;28;1906;-52
2021/10/26 10:21:45;;;;;;;;;;;15.30;99.90;;;;;;4980162;28;1036;-52
2021/10/26 10:24:14;;;;;;;;;;;15.30;99.90;;;;;;4979980;28;810;-52
2021/10/26 10:26:41;;;;;;;;;;;15.30;99.90;;;;;;4979977;28;977;-53
2021/10/26 10:29:07;;;;;;;;;;;15.30;99.90;;;;;;4980017;28;822;-54
2021/10/26 10:31:33;;;;;;;;;;;15.30;99.90;;;;;;4979658;28;878;-53
2021/10/26 10:34:01;;;;;;;;;;;15.30;99.90;;;;;;4979985;28;811;-54
2021/10/26 10:36:27;;;;;;;;;;;15.30;99.90;;;;;;4978880;28;1132;-54
2021/10/26 10:38:55;;;;;;;;;;;15.40;99.90;;;;;;4979253;28;1906;-54
2021/10/26 10:41:28;;;;;;;;;;;15.40;99.90;;;;;;4979344;28;857;-55
2021/10/26 10:43:55;;;;;;;;;;;15.40;99.90;;;;;;4979329;28;1123;-54
2021/10/26 10:46:59;;;;;;;;;;;15.40;99.90;;;;;;4979452;28;854;-53
2021/10/26 10:49:28;;;;;;;;;;;15.40;99.90;;;;;;4979317;28;1530;-52
2021/10/26 10:51:58;;;;;;;;;;;15.40;99.90;;;;;;4979386;28;774;-54
2021/10/26 10:54:38;;;;;;;;;;;15.40;99.90;;;;;;4979435;28;937;-55
2021/10/26 10:57:16;;;;;;;;;;;15.40;99.90;;;;;;4979413;28;901;-55
2021/10/26 10:59:43;;;;;;;;;;;15.40;99.90;;;;;;4979131;28;1969;-55
2021/10/26 11:02:20;;;;;;;;;;;15.40;99.90;;;;;;4978962;28;858;-55
2021/10/26 11:04:46;;;;;;;;;;;15.40;99.90;;;;;;4979134;28;831;-55
2021/10/26 11:07:12;;;;;;;;;;;15.40;99.90;;;;;;4979056;28;984;-55
2021/10/26 11:09:39;;;;;;;;;;;15.50;99.90;;;;;;4979058;28;837;-55
2021/10/26 11:12:13;;;;;;;;;;;15.50;99.90;;;;;;4978818;28;847;-55
2021/10/26 11:14:42;;;;;;;;;;;15.60;99.90;;;;;;4978893;28;964;-55
2021/10/26 11:17:27;;;;;;;;;;;15.60;99.90;;;;;;4978827;28;838;-55
2021/10/26 11:19:57;;;;;;;;;;;15.60;99.90;;;;;;4978722;28;1970;-55
2021/10/26 11:22:41;;;;;;;;;;;15.60;99.90;;;;;;4978818;28;837;-55
2021/10/26 11:25:20;;;;;;;;;;;15.60;99.90;;;;;;4978831;28;917;-55
2021/10/26 11:27:46;;;;;;;;;;;15.70;99.90;;;;;;4978573;28;834;-55
2021/10/26 11:30:27;;;;;;;;;;;15.80;99.90;;;;;;4978556;28;887;-55
2021/10/26 11:33:11;;;;;;;;;;;15.80;99.90;;;;;;4978851;28;786;-55
2021/10/26 11:35:49;;;;;;;;;;;15.70;99.90;;;;;;4973369;28;934;-54
2021/10/26 11:38:17;;;;;;;;;;;15.70;99.90;;;;;;4978619;28;761;-55
2021/10/26 11:40:53;;;;;;;;;;;15.60;99.90;;;;;;4978400;28;1903;-54
2021/10/26 11:43:20;;;;;;;;;;;15.70;99.90;;;;;;4978182;28;1124;-54
2021/10/26 11:46:00;;;;;;;;;;;15.60;99.90;;;;;;4978550;28;936;-55
2021/10/26 11:48:41;;;;;;;;;;;15.60;99.90;;;;;;4978380;28;837;-55
2021/10/26 11:51:13;;;;;;;;;;;15.60;99.90;;;;;;4977852;28;1180;-53
2021/10/26 11:53:39;;;;;;;;;;;15.60;99.90;;;;;;4977261;28;940;-53
2021/10/26 11:56:21;;;;;;;;;;;15.60;99.90;;;;;;4972557;28;874;-52
2021/10/26 11:59:04;;;;;;;;;;;15.70;99.90;;;;;;4978212;28;1974;-53
2021/10/26 12:01:34;;;;;;;;;;;15.70;99.90;;;;;;4978055;28;927;-52
2021/10/26 12:04:01;;;;;;;;;;;15.60;99.90;;;;;;4978321;28;901;-52
2021/10/26 12:06:31;;;;;;;;;;;15.60;99.90;;;;;;4978131;28;858;-52
2021/10/26 12:08:58;;;;;;;;;;;15.60;99.90;;;;;;4978076;28;897;-52
2021/10/26 12:11:32;;;;;;;;;;;15.60;99.90;;;;;;4978120;28;779;-52
2021/10/26 12:14:18;;;;;;;;;;;15.60;99.90;;;;;;4977889;28;879;-55
2021/10/26 12:17:03;;;;;;;;;;;15.70;99.90;;;;;;4978085;28;756;-55
2021/10/26 12:19:30;;;;;;;;;;;15.70;99.90;;;;;;4977883;28;1898;-55
2021/10/26 12:21:56;;;;;;;;;;;15.70;99.90;;;;;;4977942;28;835;-55
2021/10/26 12:24:23;;;;;;;;;;;15.70;99.90;;;;;;4977918;28;823;-55
2021/10/26 12:26:57;;;;;;;;;;;15.70;99.90;;;;;;4974907;28;1268;-55
2021/10/26 12:29:28;;;;;;;;;;;15.70;99.90;;;;;;4977564;28;973;-55
2021/10/26 12:31:55;;;;;;;;;;;15.70;99.90;;;;;;4976401;28;927;-55
2021/10/26 12:34:21;;;;;;;;;;;15.70;99.90;;;;;;4977466;28;846;-55
2021/10/26 12:36:47;;;;;;;;;;;15.70;99.90;;;;;;4977516;28;905;-55
2021/10/26 12:39:22;;;;;;;;;;;15.70;99.90;;;;;;4977417;28;1965;-55
2021/10/26 12:41:48;;;;;;;;;;;15.70;99.90;;;;;;4976998;28;826;-55
2021/10/26 12:44:18;;;;;;;;;;;15.70;99.90;;;;;;4977175;28;1152;-55
2021/10/26 12:46:44;;;;;;;;;;;15.60;99.90;;;;;;4977324;28;758;-55
2021/10/26 12:49:14;;;;;;;;;;;15.60;99.90;;;;;;4976992;28;854;-55
2021/10/26 12:51:42;;;;;;;;;;;15.60;99.90;;;;;;4977491;28;969;-55
2021/10/26 12:54:11;;;;;;;;;;;15.60;99.90;;;;;;4975254;28;1246;-55
2021/10/26 12:56:44;;;;;;;;;;;15.60;99.90;;;;;;4977465;28;947;-55
2021/10/26 12:59:10;;;;;;;;;;;15.60;99.90;;;;;;4977201;28;1906;-55
2021/10/26 13:01:39;;;;;;;;;;;15.60;99.90;;;;;;4977104;28;817;-55
2021/10/26 13:04:22;;;;;;;;;;;15.70;99.90;;;;;;4976966;28;771;-55
2021/10/26 13:07:05;;;;;;;;;;;15.60;99.90;;;;;;4977053;28;955;-55
2021/10/26 13:09:33;;;;;;;;;;;15.60;99.90;;;;;;4976949;28;850;-55
2021/10/26 13:12:02;;;;;;;;;;;15.60;99.90;;;;;;4977388;28;909;-55
2021/10/26 13:14:36;;;;;;;;;;;15.70;99.90;;;;;;4977219;28;822;-55
2021/10/26 13:17:02;;;;;;;;;;;15.60;99.90;;;;;;4976930;28;976;-55
2021/10/26 13:19:29;;;;;;;;;;;15.60;99.90;;;;;;4976873;28;1955;-55
2021/10/26 13:22:10;;;;;;;;;;;15.60;99.90;;;;;;4976877;28;1026;-55
2021/10/26 13:24:42;;;;;;;;;;;15.60;99.90;;;;;;4977023;28;953;-55
2021/10/26 13:27:10;;;;;;;;;;;15.60;99.90;;;;;;4976746;28;841;-55
2021/10/26 13:29:40;;;;;;;;;;;15.60;99.90;;;;;;4976786;28;1025;-55
2021/10/26 13:32:20;;;;;;;;;;;15.60;99.90;;;;;;4976989;28;1058;-55
2021/10/26 13:34:47;;;;;;;;;;;15.60;99.90;;;;;;4977083;28;883;-55
2021/10/26 13:37:13;;;;;;;;;;;15.60;99.90;;;;;;4976718;28;921;-55
2021/10/26 13:39:39;;;;;;;;;;;15.60;99.90;;;;;;4976538;28;1965;-55
2021/10/26 13:42:05;;;;;;;;;;;15.60;99.90;;;;;;4976012;28;957;-55
2021/10/26 13:44:31;;;;;;;;;;;15.60;99.90;;;;;;4976538;28;1025;-55
2021/10/26 13:46:57;;;;;;;;;;;15.60;99.90;;;;;;4976793;28;791;-55
2021/10/26 13:49:23;;;;;;;;;;;15.50;99.90;;;;;;4977158;28;1125;-55
2021/10/26 13:51:50;;;;;;;;;;;15.50;99.90;;;;;;4975917;28;902;-55
2021/10/26 13:54:16;;;;;;;;;;;15.50;99.90;;;;;;4977090;28;829;-55
2021/10/26 13:56:42;;;;;;;;;;;15.50;99.90;;;;;;4976808;28;911;-55
2021/10/26 13:59:08;;;;;;;;;;;15.50;99.90;;;;;;4976895;28;1964;-55
2021/10/26 14:01:34;;;;;;;;;;;15.50;99.90;;;;;;4976566;28;853;-55
2021/10/26 14:04:00;;;;;;;;;;;15.50;99.90;;;;;;4976448;28;824;-55
2021/10/26 14:06:26;;;;;;;;;;;15.50;99.90;;;;;;4976538;28;754;-54
2021/10/26 14:08:55;;;;;;;;;;;15.50;99.90;;;;;;4975815;28;817;-55
2021/10/26 14:11:21;;;;;;;;;;;15.50;99.90;;;;;;4976932;28;794;-56
2021/10/26 14:13:48;;;;;;;;;;;15.50;99.90;;;;;;4976939;28;820;-55
2021/10/26 14:16:14;;;;;;;;;;;15.50;99.90;;;;;;4979954;28;975;-55
2021/10/26 14:18:41;;;;;;;;;;;15.50;99.90;;;;;;4980121;28;855;-55
2021/10/26 14:21:08;;;;;;;;;;;15.50;99.90;;;;;;4980060;28;1894;-55
2021/10/26 14:23:34;;;;;;;;;;;15.50;99.90;;;;;;4978322;28;1189;-55
2021/10/26 14:26:01;;;;;;;;;;;15.50;99.90;;;;;;4979907;28;759;-54
2021/10/26 14:28:27;;;;;;;;;;;15.50;99.90;;;;;;4978643;28;1158;-54
2021/10/26 14:30:55;;;;;;;;;;;15.50;99.90;;;;;;4979805;28;857;-54
2021/10/26 14:33:21;;;;;;;;;;;15.50;99.90;;;;;;4979592;28;841;-55
2021/10/26 14:35:50;;;;;;;;;;;15.50;99.90;;;;;;4979913;28;792;-55
2021/10/26 14:38:27;;;;;;;;;;;15.50;99.90;;;;;;4979836;28;861;-54
2021/10/26 14:41:17;;;;;;;;;;;15.50;99.90;;;;;;4979694;28;1903;-55
2021/10/26 14:54:58;;;;;;;;;;;15.40;99.90;;;;;;4979744;28;783;-55
2021/10/26 14:57:25;;;;;;;;;;;15.40;99.90;;;;;;4978591;28;868;-55
2021/10/26 14:59:52;;;;;;;;;;;15.40;99.90;;;;;;4979381;28;1981;-55
2021/10/26 15:02:18;;;;;;;;;;;15.40;99.90;;;;;;4976160;28;1375;-55
2021/10/26 15:04:45;;;;;;;;;;;15.40;99.90;;;;;;4979299;28;818;-55